createdAt,value
2022-09-30T00:01:36.432Z,5.88
2022-09-30T00:04:04.928Z,5.32
2022-09-30T00:06:35.048Z,5.80
2022-09-30T00:09:04.407Z,5.95
2022-09-30T00:11:36.079Z,6.32
2022-09-30T00:14:04.017Z,5.70
2022-09-30T00:16:34.403Z,5.63
2022-09-30T00:19:04.181Z,5.95
2022-09-30T00:21:33.848Z,6.25
2022-09-30T00:24:02.267Z,6.22
2022-09-30T00:26:29.900Z,5.53
2022-09-30T00:29:00.701Z,5.32
2022-09-30T00:31:31.066Z,5.28
2022-09-30T00:34:08.240Z,5.85
2022-09-30T00:36:38.115Z,5.90
2022-09-30T00:39:08.086Z,6.72
2022-09-30T00:41:36.219Z,6.25
2022-09-30T00:44:37.554Z,6.13
2022-09-30T00:47:12.819Z,6.35
2022-09-30T00:49:40.406Z,6.32
2022-09-30T00:52:08.136Z,7.10
2022-09-30T00:54:35.902Z,7.10
2022-09-30T00:57:05.106Z,6.82
2022-09-30T00:59:38.137Z,7.20
2022-09-30T01:02:07.399Z,7.07
2022-09-30T01:04:36.040Z,7.13
2022-09-30T01:07:06.516Z,6.75
2022-09-30T01:09:35.420Z,6.57
2022-09-30T01:12:05.911Z,6.63
2022-09-30T01:14:33.773Z,7.32
2022-09-30T01:17:06.985Z,6.90
2022-09-30T01:19:58.275Z,6.85
2022-09-30T01:22:42.324Z,7.00
2022-09-30T01:25:46.377Z,6.85
2022-09-30T01:28:38.743Z,6.80
2022-09-30T01:33:55.219Z,6.57
2022-09-30T01:36:39.059Z,7.32
2022-09-30T01:39:22.353Z,7.22
2022-09-30T01:41:56.842Z,6.47
2022-09-30T01:44:35.006Z,6.82
2022-09-30T01:47:11.932Z,7.00
2022-09-30T01:49:44.912Z,7.20
2022-09-30T01:52:17.487Z,7.32
2022-09-30T01:54:54.220Z,6.78
2022-09-30T01:57:29.777Z,6.82
2022-09-30T02:00:03.164Z,7.22
2022-09-30T02:02:48.511Z,6.20
2022-09-30T02:05:21.202Z,6.40
2022-09-30T02:07:54.491Z,6.15
2022-09-30T02:10:26.462Z,6.72
2022-09-30T02:13:04.791Z,6.10
2022-09-30T02:15:40.355Z,6.50
2022-09-30T02:18:19.800Z,7.07
2022-09-30T02:20:52.942Z,6.72
2022-09-30T02:23:25.769Z,7.10
2022-09-30T02:26:00.119Z,7.30
2022-09-30T02:28:30.309Z,7.10
2022-09-30T02:31:02.458Z,6.32
2022-09-30T02:33:35.907Z,6.65
2022-09-30T02:36:09.050Z,6.25
2022-09-30T02:38:42.053Z,6.40
2022-09-30T02:41:13.811Z,7.03
2022-09-30T02:43:42.225Z,6.63
2022-09-30T02:46:24.104Z,6.20
2022-09-30T02:49:00.466Z,6.53
2022-09-30T02:51:36.760Z,6.72
2022-09-30T02:54:14.992Z,6.38
2022-09-30T02:56:54.008Z,6.85
2022-09-30T02:59:22.596Z,6.43
2022-09-30T03:01:50.682Z,6.78
2022-09-30T03:04:24.053Z,6.82
2022-09-30T03:06:52.009Z,7.07
2022-09-30T03:09:19.731Z,6.38
2022-09-30T03:11:48.687Z,6.78
2022-09-30T03:14:36.886Z,6.63
2022-09-30T03:17:33.373Z,6.22
2022-09-30T03:20:17.744Z,7.15
2022-09-30T03:23:06.683Z,6.65
2022-09-30T03:25:47.156Z,6.53
2022-09-30T03:28:23.336Z,6.85
2022-09-30T03:31:00.250Z,6.38
2022-09-30T03:33:38.190Z,7.05
2022-09-30T03:36:16.307Z,6.80
2022-09-30T03:38:51.986Z,6.53
2022-09-30T03:41:27.294Z,6.30
2022-09-30T03:44:02.188Z,6.28
2022-09-30T03:46:35.407Z,6.18
2022-09-30T03:49:06.806Z,7.00
2022-09-30T03:51:37.445Z,5.90
2022-09-30T03:54:08.860Z,5.97
2022-09-30T03:56:39.193Z,5.82
2022-09-30T03:59:06.833Z,6.05
2022-09-30T04:01:34.444Z,5.93
2022-09-30T04:04:02.483Z,6.05
2022-09-30T04:06:29.995Z,5.55
2022-09-30T04:08:58.948Z,5.80
2022-09-30T04:11:26.661Z,6.40
2022-09-30T04:13:54.228Z,6.40
2022-09-30T04:16:22.046Z,5.47
2022-09-30T04:18:49.640Z,5.60
2022-09-30T04:21:17.538Z,5.68
2022-09-30T04:23:45.050Z,6.43
2022-09-30T04:26:15.930Z,6.00
2022-09-30T04:28:43.814Z,6.22
2022-09-30T04:31:13.043Z,6.05
2022-09-30T04:33:41.455Z,6.07
2022-09-30T04:36:09.530Z,6.35
2022-09-30T04:38:37.222Z,5.50
2022-09-30T04:41:06.310Z,6.07
2022-09-30T04:43:35.579Z,5.90
2022-09-30T04:46:03.253Z,5.78
2022-09-30T04:48:32.285Z,5.57
2022-09-30T04:51:00.854Z,5.50
2022-09-30T04:53:29.241Z,5.60
2022-09-30T04:56:00.911Z,6.00
2022-09-30T04:58:32.254Z,6.18
2022-09-30T05:01:04.855Z,5.75
2022-09-30T05:03:32.640Z,5.90
2022-09-30T05:06:00.206Z,6.15
2022-09-30T05:08:27.859Z,6.35
2022-09-30T05:10:57.389Z,6.13
2022-09-30T05:13:26.544Z,5.97
2022-09-30T05:15:54.117Z,5.75
2022-09-30T05:18:26.302Z,5.75
2022-09-30T05:20:54.887Z,6.10
2022-09-30T05:23:22.804Z,5.95
2022-09-30T05:25:51.939Z,5.50
2022-09-30T05:28:19.748Z,6.15
2022-09-30T05:30:47.953Z,5.47
2022-09-30T05:33:15.579Z,5.97
2022-09-30T05:35:44.939Z,6.80
2022-09-30T05:38:12.762Z,6.10
2022-09-30T05:40:40.981Z,6.50
2022-09-30T05:43:08.577Z,6.07
2022-09-30T05:45:36.216Z,6.30
2022-09-30T05:48:03.923Z,6.68
2022-09-30T05:50:31.780Z,6.45
2022-09-30T05:53:01.737Z,6.00
2022-09-30T05:55:29.487Z,5.95
2022-09-30T05:57:57.280Z,6.28
2022-09-30T06:00:24.956Z,6.80
2022-09-30T06:02:53.251Z,6.18
2022-09-30T06:05:22.037Z,6.78
2022-09-30T06:07:50.400Z,8.45
2022-09-30T06:10:19.369Z,8.02
2022-09-30T06:12:46.945Z,7.63
2022-09-30T06:15:14.538Z,8.35
2022-09-30T06:17:42.542Z,7.68
2022-09-30T06:20:11.352Z,6.97
2022-09-30T06:22:39.487Z,6.63
2022-09-30T06:25:07.843Z,6.72
2022-09-30T06:27:38.114Z,7.10
2022-09-30T06:30:07.099Z,6.97
2022-09-30T06:32:34.848Z,6.80
2022-09-30T06:35:03.740Z,6.70
2022-09-30T06:37:31.303Z,6.95
2022-09-30T06:39:58.862Z,7.35
2022-09-30T06:42:26.384Z,6.85
2022-09-30T06:44:55.662Z,7.25
2022-09-30T06:47:25.774Z,6.80
2022-09-30T06:49:58.368Z,7.15
2022-09-30T06:52:27.237Z,6.20
2022-09-30T06:54:56.390Z,6.93
2022-09-30T06:57:25.136Z,6.90
2022-09-30T06:59:52.960Z,7.15
2022-09-30T07:02:22.241Z,7.45
2022-09-30T07:04:50.181Z,8.50
2022-09-30T07:07:22.128Z,8.30
2022-09-30T07:09:50.003Z,7.75
2022-09-30T07:12:17.627Z,7.78
2022-09-30T07:14:45.308Z,8.20
2022-09-30T07:17:12.827Z,8.52
2022-09-30T07:19:41.741Z,8.00
2022-09-30T07:22:26.820Z,8.32
2022-09-30T07:24:54.750Z,10.52
2022-09-30T07:27:22.613Z,10.40
2022-09-30T07:30:08.252Z,11.15
2022-09-30T07:32:37.775Z,10.45
2022-09-30T07:35:07.305Z,11.00
2022-09-30T07:37:35.867Z,11.38
2022-09-30T07:40:06.542Z,11.80
2022-09-30T07:42:37.477Z,12.35
2022-09-30T07:45:06.169Z,12.27
2022-09-30T07:47:33.672Z,11.13
2022-09-30T07:50:01.267Z,11.85
2022-09-30T07:52:30.346Z,10.73
2022-09-30T07:54:57.873Z,10.95
2022-09-30T07:57:25.407Z,10.63
2022-09-30T07:59:53.057Z,11.23
2022-09-30T08:02:20.961Z,11.10
2022-09-30T08:04:48.753Z,9.90
2022-09-30T08:07:17.958Z,9.23
2022-09-30T08:09:47.121Z,10.38
2022-09-30T08:12:14.899Z,11.00
2022-09-30T08:14:44.476Z,9.80
2022-09-30T08:17:12.190Z,11.68
2022-09-30T08:19:43.888Z,12.60
2022-09-30T08:22:13.716Z,10.05
2022-09-30T08:24:41.262Z,11.32
2022-09-30T08:27:10.214Z,10.25
2022-09-30T08:32:25.542Z,11.02
2022-09-30T08:34:53.253Z,10.45
2022-09-30T08:37:20.793Z,9.88
2022-09-30T08:39:48.389Z,8.73
2022-09-30T08:42:38.029Z,9.50
2022-09-30T08:45:18.038Z,10.43
2022-09-30T08:47:57.570Z,9.88
2022-09-30T08:50:31.639Z,9.48
2022-09-30T08:53:02.426Z,9.65
2022-09-30T08:55:36.896Z,10.52
2022-09-30T08:58:08.175Z,9.95
2022-09-30T09:00:36.652Z,9.80
2022-09-30T09:03:04.960Z,10.90
2022-09-30T09:05:49.910Z,10.35
2022-09-30T09:08:30.460Z,10.40
2022-09-30T09:11:02.938Z,9.95
2022-09-30T09:13:46.223Z,10.48
2022-09-30T09:16:22.415Z,9.68
2022-09-30T09:19:00.156Z,10.00
2022-09-30T09:21:52.372Z,10.63
2022-09-30T09:24:22.176Z,9.43
2022-09-30T09:26:52.393Z,10.48
2022-09-30T09:29:28.894Z,8.98
2022-09-30T09:31:57.234Z,9.02
2022-09-30T09:34:26.976Z,9.57
2022-09-30T09:37:07.520Z,9.48
2022-09-30T09:40:04.558Z,9.38
2022-09-30T09:42:50.842Z,9.98
2022-09-30T09:45:29.329Z,8.98
2022-09-30T09:47:59.956Z,9.10
2022-09-30T09:50:40.632Z,8.40
2022-09-30T09:53:22.137Z,8.10
2022-09-30T09:55:54.865Z,8.43
2022-09-30T09:58:22.495Z,7.68
2022-09-30T10:01:19.987Z,6.90
2022-09-30T10:03:48.291Z,7.70
2022-09-30T10:06:16.025Z,7.50
2022-09-30T10:08:54.777Z,7.35
2022-09-30T10:11:24.720Z,7.68
2022-09-30T10:13:57.013Z,7.40
2022-09-30T10:16:31.876Z,7.25
2022-09-30T10:19:00.348Z,6.97
2022-09-30T10:21:30.045Z,5.90
2022-09-30T10:23:59.797Z,6.40
2022-09-30T10:26:28.714Z,6.35
2022-09-30T10:28:57.833Z,5.88
2022-09-30T10:31:29.538Z,5.72
2022-09-30T10:34:04.306Z,5.63
2022-09-30T10:36:34.240Z,5.93
2022-09-30T10:39:07.171Z,6.32
2022-09-30T10:41:36.797Z,6.05
2022-09-30T10:44:07.673Z,5.70
2022-09-30T10:46:40.353Z,6.25
2022-09-30T10:49:12.776Z,5.97
2022-09-30T10:51:41.569Z,6.85
2022-09-30T10:54:35.740Z,7.28
2022-09-30T10:57:04.403Z,7.00
2022-09-30T10:59:36.159Z,6.70
2022-09-30T11:02:26.358Z,6.70
2022-09-30T11:05:03.432Z,6.85
2022-09-30T11:07:34.592Z,6.20
2022-09-30T11:10:07.653Z,7.25
2022-09-30T11:12:44.523Z,7.40
2022-09-30T11:15:19.918Z,7.13
2022-09-30T11:17:55.733Z,7.63
2022-09-30T11:20:27.586Z,8.20
2022-09-30T11:23:02.568Z,7.45
2022-09-30T11:25:41.604Z,7.32
2022-09-30T11:28:48.770Z,7.20
2022-09-30T11:31:26.729Z,7.38
2022-09-30T11:34:10.268Z,7.28
2022-09-30T11:36:46.712Z,7.72
2022-09-30T11:39:31.765Z,6.63
2022-09-30T11:42:06.576Z,6.90
2022-09-30T11:44:36.296Z,7.78
2022-09-30T11:47:46.440Z,6.93
2022-09-30T11:50:39.948Z,5.72
2022-09-30T11:53:19.051Z,5.70
2022-09-30T11:56:04.319Z,5.88
2022-09-30T11:58:41.602Z,6.05
2022-09-30T12:01:22.766Z,5.53
2022-09-30T12:03:58.059Z,5.30
2022-09-30T12:06:32.936Z,5.30
2022-09-30T12:09:06.839Z,5.25
2022-09-30T12:11:40.612Z,4.88
2022-09-30T12:14:17.130Z,5.03
2022-09-30T12:16:47.881Z,5.45
2022-09-30T12:19:24.494Z,5.07
2022-09-30T12:21:59.828Z,4.70
2022-09-30T12:24:33.695Z,4.18
2022-09-30T12:27:01.894Z,4.97
2022-09-30T12:29:52.032Z,3.85
2022-09-30T12:32:37.249Z,3.80
2022-09-30T12:35:25.724Z,3.90
2022-09-30T12:38:12.947Z,4.55
2022-09-30T12:41:03.735Z,4.30
2022-09-30T12:44:06.760Z,3.83
2022-09-30T12:46:55.164Z,3.35
2022-09-30T12:49:26.003Z,3.35
2022-09-30T12:51:56.914Z,3.30
2022-09-30T12:54:29.830Z,3.58
2022-09-30T12:57:03.226Z,3.45
2022-09-30T12:59:34.842Z,3.40
2022-09-30T13:02:04.923Z,3.72
2022-09-30T13:04:35.907Z,3.10
2022-09-30T13:07:22.709Z,3.10
2022-09-30T13:10:01.229Z,2.80
2022-09-30T13:12:41.611Z,3.15
2022-09-30T13:15:24.980Z,3.15
2022-09-30T13:17:52.800Z,2.83
2022-09-30T13:20:55.050Z,2.90
2022-09-30T13:26:38.075Z,3.42
2022-09-30T13:29:39.288Z,2.97
2022-09-30T13:32:11.535Z,2.80
2022-09-30T13:34:57.843Z,2.60
2022-09-30T13:37:40.402Z,2.92
2022-09-30T13:40:49.767Z,3.00
2022-09-30T13:43:21.218Z,2.85
2022-09-30T13:45:52.849Z,2.83
2022-09-30T13:48:26.734Z,2.58
2022-09-30T13:50:56.434Z,2.80
2022-09-30T13:53:30.428Z,3.00
2022-09-30T13:56:01.722Z,2.90
2022-09-30T13:58:52.702Z,2.90
2022-09-30T14:01:34.695Z,2.70
2022-09-30T14:07:05.187Z,3.03
2022-09-30T14:12:32.941Z,2.90
2022-09-30T14:15:31.701Z,2.78
2022-09-30T14:18:23.277Z,2.60
2022-09-30T14:21:06.053Z,3.03
2022-09-30T14:23:33.660Z,2.58
2022-09-30T14:26:16.217Z,2.20
2022-09-30T14:28:50.209Z,2.17
2022-09-30T14:31:20.333Z,2.30
2022-09-30T14:33:51.980Z,2.20
2022-09-30T14:36:23.203Z,2.20
2022-09-30T14:38:54.694Z,1.90
2022-09-30T14:41:24.199Z,2.10
2022-09-30T14:43:56.473Z,2.00
2022-09-30T14:46:31.812Z,2.13
2022-09-30T14:49:04.522Z,2.30
2022-09-30T14:51:38.091Z,2.05
2022-09-30T14:54:06.257Z,1.92
2022-09-30T14:56:36.443Z,2.25
2022-09-30T14:59:17.726Z,2.10
2022-09-30T15:01:48.709Z,2.03
2022-09-30T15:04:18.868Z,2.45
2022-09-30T15:06:49.456Z,1.95
2022-09-30T15:09:19.441Z,2.17
2022-09-30T15:11:48.474Z,2.03
2022-09-30T15:14:19.375Z,2.05
2022-09-30T15:16:50.648Z,2.10
2022-09-30T15:19:23.002Z,2.20
2022-09-30T15:21:53.097Z,2.30
2022-09-30T15:24:23.909Z,2.13
2022-09-30T15:26:53.514Z,2.00
2022-09-30T15:29:21.030Z,2.10
2022-09-30T15:31:55.038Z,2.33
2022-09-30T15:34:26.053Z,1.98
2022-09-30T15:36:59.683Z,2.05
2022-09-30T15:39:51.354Z,2.10
2022-09-30T15:42:36.111Z,2.40
2022-09-30T15:45:06.204Z,2.45
2022-09-30T15:47:54.936Z,2.38
2022-09-30T15:50:43.318Z,2.40
2022-09-30T15:53:20.013Z,2.72
2022-09-30T15:55:50.447Z,2.20
2022-09-30T15:58:37.816Z,2.50
2022-09-30T16:01:21.292Z,2.50
2022-09-30T16:03:54.610Z,2.67
2022-09-30T16:06:31.568Z,2.30
2022-09-30T16:09:02.168Z,2.47
2022-09-30T16:11:34.678Z,2.50
2022-09-30T16:14:05.460Z,2.47
2022-09-30T16:16:36.028Z,2.80
2022-09-30T16:19:06.460Z,2.50
2022-09-30T16:21:47.097Z,2.58
2022-09-30T16:24:48.902Z,2.28
2022-09-30T16:27:37.569Z,2.47
2022-09-30T16:30:07.423Z,2.03
2022-09-30T16:32:39.584Z,2.22
2022-09-30T16:35:17.013Z,2.10
2022-09-30T16:37:45.013Z,2.28
2022-09-30T16:40:24.328Z,2.05
2022-09-30T16:42:54.684Z,2.10
2022-09-30T16:45:23.042Z,2.40
2022-09-30T16:47:50.668Z,2.20
2022-09-30T16:50:25.343Z,2.05
2022-09-30T16:52:52.946Z,2.20
2022-09-30T16:55:20.482Z,2.05
2022-09-30T16:57:48.168Z,1.92
2022-09-30T17:00:17.975Z,2.28
2022-09-30T17:02:47.389Z,2.30
2022-09-30T17:05:18.493Z,2.38
2022-09-30T17:07:48.662Z,2.17
2022-09-30T17:10:22.354Z,2.15
2022-09-30T17:12:51.104Z,2.30
2022-09-30T17:15:19.548Z,2.00
2022-09-30T17:17:47.530Z,2.00
2022-09-30T17:20:15.630Z,2.03
2022-09-30T17:22:44.065Z,2.00
2022-09-30T17:25:13.005Z,2.03
2022-09-30T17:27:40.680Z,1.80
2022-09-30T17:30:09.640Z,2.10
2022-09-30T17:32:37.264Z,2.28
2022-09-30T17:35:05.953Z,2.10
2022-09-30T17:37:33.495Z,1.98
2022-09-30T17:40:01.534Z,2.10
2022-09-30T17:42:48.215Z,2.58
2022-09-30T17:45:15.983Z,2.50
2022-09-30T17:47:43.787Z,2.40
2022-09-30T17:50:12.778Z,2.47
2022-09-30T17:52:40.366Z,2.80
2022-09-30T17:55:08.307Z,2.65
2022-09-30T17:57:39.869Z,3.00
2022-09-30T18:00:09.085Z,3.30
2022-09-30T18:02:38.450Z,3.60
2022-09-30T18:05:06.772Z,3.85
2022-09-30T18:07:34.378Z,3.38
2022-09-30T18:10:02.455Z,3.58
2022-09-30T18:12:29.993Z,3.40
2022-09-30T18:14:59.695Z,4.13
2022-09-30T18:17:28.632Z,3.20
2022-09-30T18:19:56.267Z,4.25
2022-09-30T18:22:23.940Z,3.78
2022-09-30T18:25:09.007Z,3.70
2022-09-30T18:27:36.675Z,3.78
2022-09-30T18:30:06.783Z,4.15
2022-09-30T18:32:34.401Z,3.92
2022-09-30T18:35:01.948Z,3.97
2022-09-30T18:37:33.161Z,3.70
2022-09-30T18:40:00.857Z,3.67
2022-09-30T18:42:30.171Z,3.78
2022-09-30T18:44:57.755Z,3.85
2022-09-30T18:47:27.235Z,3.58
2022-09-30T18:49:54.895Z,3.60
2022-09-30T18:52:22.490Z,3.42
2022-09-30T18:54:50.172Z,3.97
2022-09-30T18:57:17.876Z,3.65
2022-09-30T18:59:45.603Z,3.58
2022-09-30T19:02:15.326Z,3.70
2022-09-30T19:04:44.312Z,3.50
2022-09-30T19:07:12.039Z,3.63
2022-09-30T19:09:40.962Z,3.55
2022-09-30T19:12:08.676Z,3.70
2022-09-30T19:14:37.384Z,3.70
2022-09-30T19:17:04.953Z,3.67
2022-09-30T19:19:32.931Z,3.53
2022-09-30T19:22:02.920Z,3.40
2022-09-30T19:24:30.483Z,3.30
2022-09-30T19:26:58.137Z,3.78
2022-09-30T19:29:25.940Z,4.22
2022-09-30T19:31:53.644Z,4.32
2022-09-30T19:34:30.791Z,4.40
2022-09-30T19:37:00.086Z,4.55
2022-09-30T19:39:40.762Z,4.60
2022-09-30T19:45:04.194Z,4.47
2022-09-30T19:47:34.309Z,4.30
2022-09-30T19:50:02.122Z,4.30
2022-09-30T19:52:30.095Z,4.35
2022-09-30T19:55:08.625Z,4.45
2022-09-30T19:57:42.391Z,3.95
2022-09-30T20:00:11.100Z,3.70
2022-09-30T20:02:39.325Z,4.30
2022-09-30T20:05:08.108Z,3.88
2022-09-30T20:07:35.933Z,3.83
2022-09-30T20:10:05.482Z,4.00
2022-09-30T20:12:33.135Z,3.85
2022-09-30T20:15:18.224Z,3.70
2022-09-30T20:17:45.853Z,3.30
2022-09-30T20:20:30.796Z,3.63
2022-09-30T20:23:01.010Z,3.47
2022-09-30T20:25:30.466Z,3.28
2022-09-30T20:27:58.091Z,3.55
2022-09-30T20:30:26.880Z,3.40
2022-09-30T20:32:54.572Z,3.42
2022-09-30T20:35:22.281Z,3.38
2022-09-30T20:37:50.019Z,3.15
2022-09-30T20:40:17.906Z,3.10
2022-09-30T20:42:46.894Z,2.90
2022-09-30T20:45:17.969Z,3.20
2022-09-30T20:47:47.142Z,3.10
2022-09-30T20:50:34.618Z,2.70
2022-09-30T20:53:04.176Z,3.05
2022-09-30T20:55:34.738Z,3.08
2022-09-30T20:58:04.605Z,2.70
2022-09-30T21:00:32.755Z,2.63
2022-09-30T21:03:00.423Z,2.63
2022-09-30T21:05:28.084Z,2.95
2022-09-30T21:07:55.943Z,2.80
2022-09-30T21:10:23.608Z,2.80
2022-09-30T21:12:51.171Z,2.90
2022-09-30T21:15:20.116Z,3.28
2022-09-30T21:17:47.681Z,2.67
2022-09-30T21:20:15.451Z,2.65
2022-09-30T21:22:43.102Z,2.83
2022-09-30T21:25:11.796Z,2.80
2022-09-30T21:27:40.296Z,2.80
2022-09-30T21:30:08.887Z,2.92
2022-09-30T21:32:39.232Z,2.80
2022-09-30T21:35:07.574Z,2.67
2022-09-30T21:37:35.161Z,2.95
2022-09-30T21:40:02.881Z,2.70
2022-09-30T21:42:30.628Z,2.80
2022-09-30T21:44:58.304Z,2.90
2022-09-30T21:47:25.827Z,2.80
2022-09-30T21:49:54.695Z,2.50
2022-09-30T21:52:22.926Z,2.78
2022-09-30T21:54:52.042Z,3.10
2022-09-30T21:57:19.659Z,2.60
2022-09-30T21:59:50.339Z,2.80
2022-09-30T22:02:18.165Z,2.50
2022-09-30T22:04:45.736Z,2.88
2022-09-30T22:07:16.027Z,2.80
2022-09-30T22:09:43.995Z,2.63
2022-09-30T22:12:11.734Z,2.55
2022-09-30T22:14:39.353Z,2.58
2022-09-30T22:17:10.037Z,2.40
2022-09-30T22:19:38.848Z,2.50
2022-09-30T22:22:06.461Z,2.47
2022-09-30T22:24:36.759Z,2.40
2022-09-30T22:27:05.377Z,2.60
2022-09-30T22:29:32.920Z,2.50
2022-09-30T22:32:02.214Z,2.40
2022-09-30T22:34:47.493Z,2.50
2022-09-30T22:37:32.918Z,2.50
2022-09-30T22:40:02.253Z,2.40
2022-09-30T22:42:30.167Z,2.55
2022-09-30T22:44:57.702Z,2.78
2022-09-30T22:47:25.251Z,2.50
2022-09-30T22:49:52.841Z,2.47
2022-09-30T22:52:20.414Z,2.55
2022-09-30T22:54:47.971Z,2.53
2022-09-30T22:57:17.072Z,2.35
2022-09-30T22:59:46.484Z,2.47
2022-09-30T23:02:15.638Z,2.60
2022-09-30T23:04:44.033Z,2.40
2022-09-30T23:07:11.698Z,2.42
2022-09-30T23:09:39.271Z,2.30
2022-09-30T23:12:06.943Z,2.40
2022-09-30T23:14:35.848Z,2.60
2022-09-30T23:17:03.573Z,2.30
2022-09-30T23:19:31.204Z,2.25
2022-09-30T23:21:58.948Z,2.50
2022-09-30T23:24:27.814Z,2.30
2022-09-30T23:26:55.533Z,2.47
2022-09-30T23:29:23.267Z,2.50
2022-09-30T23:32:44.008Z,2.40
2022-09-30T23:35:14.096Z,2.35
2022-09-30T23:37:41.734Z,2.30
2022-09-30T23:40:10.257Z,2.30
2022-09-30T23:42:37.852Z,2.70
2022-09-30T23:45:05.914Z,2.50
2022-09-30T23:47:34.450Z,2.45
2022-09-30T23:50:02.247Z,2.40
2022-09-30T23:52:31.331Z,2.58
2022-09-30T23:54:58.958Z,2.30
2022-09-30T23:57:26.717Z,2.40
2022-09-30T23:59:54.332Z,2.60
